Time;durP1;ratioP1;P1;durP2;ratioP2;P2;SDS_P1;SDS_P2;PMS_P1;PMS_P2;Temp;Humidity;BMP_temperature;BMP_pressure;BME280_temperature;BME280_humidity;BME280_pressure;Samples;Min_cycle;Max_cycle;Signal;HPM_P1;HPM_P2
2023/07/02 00:02:05;;;;;;;5.30;3.93;;;;;;;19.40;68.30;95642.00;5045324;28;20300;-71
2023/07/02 00:04:30;;;;;;;3.80;2.83;;;;;;;19.30;68.97;95642.97;5044617;28;20198;-69
2023/07/02 00:06:56;;;;;;;10.07;4.03;;;;;;;19.32;68.79;95646.34;5045341;28;20189;-69
2023/07/02 00:09:21;;;;;;;5.27;3.00;;;;;;;19.31;69.27;95652.66;5045708;28;20179;-71
2023/07/02 00:11:46;;;;;;;4.03;3.00;;;;;;;19.17;69.40;95643.25;5045518;28;20183;-70
2023/07/02 00:14:13;;;;;;;3.60;2.87;;;;;;;19.20;69.37;95635.81;5044855;28;20535;-69
2023/07/02 00:16:42;;;;;;;10.13;4.23;;;;;;;19.19;69.47;95636.81;5044556;28;20186;-68
2023/07/02 00:19:07;;;;;;;3.87;2.77;;;;;;;19.18;69.66;95636.94;5044872;28;20429;-70
2023/07/02 00:21:33;;;;;;;6.57;2.43;;;;;;;19.10;69.87;95634.97;5045458;28;20437;-68
2023/07/02 00:24:00;;;;;;;12.13;3.13;;;;;;;19.11;69.96;95641.13;5045190;28;20705;-71
2023/07/02 00:26:28;;;;;;;4.20;2.13;;;;;;;19.16;69.84;95639.75;5045352;28;20179;-69
2023/07/02 00:28:55;;;;;;;7.30;3.63;;;;;;;19.11;70.10;95639.34;5044943;28;20420;-70
2023/07/02 00:31:21;;;;;;;3.07;2.37;;;;;;;19.15;70.13;95640.72;5045958;28;21088;-69
2023/07/02 00:33:47;;;;;;;2.77;2.50;;;;;;;19.10;70.38;95639.47;5047187;28;20447;-70
2023/07/02 00:36:14;;;;;;;5.80;2.60;;;;;;;19.07;70.49;95647.72;5047037;28;20178;-68
2023/07/02 00:38:48;;;;;;;3.40;3.00;;;;;;;19.11;70.25;95647.31;5047277;28;20259;-70
2023/07/02 00:41:13;;;;;;;6.70;2.60;;;;;;;19.28;70.21;95656.44;5046396;28;20414;-68
2023/07/02 00:43:48;;;;;;;2.63;2.40;;;;;;;18.94;71.13;95662.09;5047675;28;20460;-68
2023/07/02 00:46:19;;;;;;;7.17;2.50;;;;;;;19.17;70.35;95660.03;5050215;28;20789;-68
2023/07/02 00:48:47;;;;;;;2.30;2.07;;;;;;;19.32;69.97;95672.94;5050006;28;20417;-70
2023/07/02 00:51:27;;;;;;;5.20;2.83;;;;;;;19.36;69.68;95680.50;5041084;28;20420;-70
2023/07/02 00:53:54;;;;;;;6.17;2.97;;;;;;;19.30;69.57;95680.22;5049231;28;20473;-69
2023/07/02 00:56:20;;;;;;;7.90;2.57;;;;;;;19.18;69.45;95677.69;5049717;28;20456;-70
2023/07/02 00:58:51;;;;;;;3.17;2.63;;;;;;;19.36;67.04;95679.66;5049544;28;20459;-68
2023/07/02 01:01:18;;;;;;;3.20;2.23;;;;;;;19.26;66.23;95679.66;5049344;28;20495;-69
2023/07/02 01:04:07;;;;;;;3.27;2.97;;;;;;;19.19;64.94;95673.22;5048513;28;20472;-68
2023/07/02 01:06:35;;;;;;;3.73;2.97;;;;;;;19.19;64.81;95679.38;5048588;28;20517;-70
2023/07/02 01:09:05;;;;;;;3.73;2.63;;;;;;;19.10;64.64;95668.72;5048757;28;20486;-69
2023/07/02 01:11:46;;;;;;;5.50;3.37;;;;;;;19.28;63.85;95663.56;5048598;28;20425;-69
2023/07/02 01:14:16;;;;;;;3.60;3.00;;;;;;;19.03;61.36;95660.44;5048222;28;20503;-70
2023/07/02 01:16:43;;;;;;;5.77;3.20;;;;;;;19.07;61.81;95659.19;5048447;28;21184;-70
2023/07/02 01:19:19;;;;;;;5.17;3.20;;;;;;;19.04;62.53;95665.63;5048120;28;20463;-69
2023/07/02 01:21:47;;;;;;;5.67;3.40;;;;;;;19.16;60.76;95668.19;5048675;28;20555;-69
2023/07/02 01:24:14;;;;;;;3.93;3.53;;;;;;;19.08;60.23;95660.88;5048413;28;20445;-69
2023/07/02 01:26:40;;;;;;;11.67;4.30;;;;;;;19.09;59.88;95667.88;5048501;28;20425;-70
2023/07/02 01:29:18;;;;;;;5.83;3.47;;;;;;;19.08;60.17;95662.69;5048217;28;20874;-70
2023/07/02 01:31:44;;;;;;;7.63;2.67;;;;;;;19.03;59.14;95665.75;5047975;28;20747;-70
2023/07/02 01:34:10;;;;;;;3.70;2.80;;;;;;;18.94;59.02;95664.75;5047717;28;20532;-70
2023/07/02 01:36:36;;;;;;;7.30;2.73;;;;;;;19.00;58.80;95660.72;5047663;28;20183;-70
2023/07/02 01:39:02;;;;;;;3.40;3.10;;;;;;;18.96;58.78;95661.97;5047671;28;20616;-70
2023/07/02 01:41:27;;;;;;;5.90;3.47;;;;;;;19.02;59.19;95658.78;5047380;28;20186;-70
2023/07/02 01:43:53;;;;;;;4.40;3.33;;;;;;;19.00;58.24;95660.72;5047133;28;20671;-69
2023/07/02 01:46:18;;;;;;;7.07;3.50;;;;;;;19.04;57.83;95668.31;5045577;28;20175;-68
2023/07/02 01:48:44;;;;;;;4.47;3.40;;;;;;;19.03;57.94;95663.09;5048070;28;20195;-69
2023/07/02 01:51:09;;;;;;;4.27;3.63;;;;;;;19.00;58.25;95668.72;5048873;28;20179;-69
2023/07/02 01:53:34;;;;;;;15.63;3.90;;;;;;;18.97;58.49;95663.69;5046575;28;20198;-71
2023/07/02 01:56:00;;;;;;;4.93;3.60;;;;;;;18.99;58.23;95669.66;5046520;28;20644;-69
2023/07/02 01:58:25;;;;;;;12.73;3.77;;;;;;;19.08;58.31;95678.66;5047105;28;20301;-69
2023/07/02 02:00:51;;;;;;;4.20;2.80;;;;;;;18.93;58.45;95680.88;5047046;28;20186;-70
2023/07/02 02:03:16;;;;;;;3.80;2.43;;;;;;;19.09;58.49;95678.53;5047244;28;20195;-69
2023/07/02 02:05:41;;;;;;;8.17;3.03;;;;;;;18.98;58.87;95676.81;5046973;28;20225;-69
2023/07/02 02:08:07;;;;;;;6.33;3.50;;;;;;;18.96;58.77;95683.25;5047226;28;20256;-70
2023/07/02 02:10:32;;;;;;;4.23;3.30;;;;;;;19.03;58.49;95681.72;5047210;28;20185;-69
2023/07/02 02:12:57;;;;;;;6.40;3.50;;;;;;;18.93;58.79;95681.69;5046969;28;20178;-69
2023/07/02 02:15:23;;;;;;;6.20;4.40;;;;;;;18.98;58.52;95689.28;5046473;28;20214;-69
2023/07/02 02:17:48;;;;;;;7.57;3.67;;;;;;;18.89;58.95;95692.75;5046365;28;20202;-69
2023/07/02 02:20:14;;;;;;;6.47;3.30;;;;;;;18.92;58.89;95695.97;5046533;28;20185;-68
2023/07/02 02:22:39;;;;;;;4.23;3.20;;;;;;;18.93;59.00;95705.63;5046621;28;20222;-71
2023/07/02 02:25:05;;;;;;;3.00;2.67;;;;;;;18.96;58.86;95704.50;5046497;28;20199;-70
2023/07/02 02:27:30;;;;;;;3.53;2.90;;;;;;;18.87;58.90;95710.66;5046638;28;20210;-70
2023/07/02 02:29:56;;;;;;;5.20;3.97;;;;;;;18.76;58.83;95703.59;5046621;28;20179;-68
2023/07/02 02:32:22;;;;;;;10.37;3.53;;;;;;;18.80;59.19;95702.34;5047017;28;20934;-69
2023/07/02 02:34:47;;;;;;;13.10;4.70;;;;;;;18.68;60.35;95690.13;5046537;28;20542;-68
2023/07/02 02:37:13;;;;;;;6.47;3.80;;;;;;;18.79;60.01;95692.72;5047454;28;20458;-69
2023/07/02 02:39:38;;;;;;;31.27;5.33;;;;;;;18.80;59.43;95684.63;5056570;28;20223;-68
2023/07/02 02:42:04;;;;;;;9.03;4.27;;;;;;;18.74;59.57;95676.31;5046642;28;20229;-69
2023/07/02 02:44:29;;;;;;;4.60;3.10;;;;;;;18.68;59.83;95685.63;5045854;28;20206;-70
2023/07/02 02:46:55;;;;;;;5.40;2.80;;;;;;;18.70;59.68;95675.72;5045883;28;20179;-69
2023/07/02 02:49:20;;;;;;;12.50;4.40;;;;;;;18.78;59.44;95675.94;5045999;28;20175;-67
2023/07/02 02:51:46;;;;;;;12.20;5.30;;;;;;;18.68;59.56;95682.97;5046250;28;20319;-70
2023/07/02 02:54:11;;;;;;;4.27;3.53;;;;;;;18.54;59.63;95684.22;5045769;28;20199;-70
2023/07/02 02:56:37;;;;;;;16.73;3.63;;;;;;;18.56;59.88;95692.03;5046498;28;20527;-67
2023/07/02 02:59:02;;;;;;;20.87;5.63;;;;;;;18.59;59.89;95689.97;5046681;28;20179;-69
2023/07/02 03:01:30;;;;;;;21.70;4.70;;;;;;;18.52;59.66;95688.81;5046840;28;20276;-67
2023/07/02 03:03:58;;;;;;;13.87;4.90;;;;;;;18.49;59.84;95697.03;5046026;28;20201;-70
2023/07/02 03:06:24;;;;;;;40.73;8.77;;;;;;;18.41;60.19;95696.88;5046168;28;20453;-70
2023/07/02 03:08:49;;;;;;;16.10;4.50;;;;;;;18.38;60.49;95695.31;5046143;28;20430;-70
2023/07/02 03:11:14;;;;;;;99.63;12.10;;;;;;;18.33;60.86;95697.53;5046262;28;20181;-70
2023/07/02 03:13:40;;;;;;;15.57;5.03;;;;;;;18.31;60.90;95710.13;5045715;28;20752;-70
2023/07/02 03:16:05;;;;;;;19.30;4.83;;;;;;;18.24;61.38;95700.16;5045764;28;20175;-69
2023/07/02 03:18:31;;;;;;;12.70;4.37;;;;;;;18.26;61.25;95701.69;5045640;28;20194;-68
2023/07/02 03:20:56;;;;;;;17.03;4.83;;;;;;;18.25;61.07;95710.63;5045903;28;20179;-70
2023/07/02 03:23:22;;;;;;;8.80;3.50;;;;;;;18.20;61.44;95707.53;5045935;28;20198;-70
2023/07/02 03:25:47;;;;;;;13.50;4.17;;;;;;;18.22;61.17;95699.44;5046002;28;20202;-70
2023/07/02 03:28:13;;;;;;;26.20;6.00;;;;;;;18.26;61.47;95700.84;5046057;28;20183;-70
2023/07/02 03:30:38;;;;;;;114.97;14.53;;;;;;;18.20;61.68;95694.25;5046247;28;20257;-70
2023/07/02 03:33:03;;;;;;;84.47;11.33;;;;;;;18.20;62.18;95699.56;5046012;28;20171;-67
2023/07/02 03:35:29;;;;;;;10.43;4.23;;;;;;;18.19;61.85;95703.19;5045660;28;20248;-70
2023/07/02 03:37:54;;;;;;;13.87;5.00;;;;;;;18.20;61.81;95695.09;5045903;28;20770;-71
2023/07/02 03:40:20;;;;;;;35.50;5.67;;;;;;;18.13;62.13;95693.94;5045397;28;20186;-70
2023/07/02 03:42:45;;;;;;;17.73;4.80;;;;;;;18.17;61.91;95689.22;5045303;28;20207;-70
2023/07/02 03:45:10;;;;;;;4.73;3.27;;;;;;;18.27;62.20;95700.72;5045018;28;20271;-68
2023/07/02 03:47:36;;;;;;;4.80;3.67;;;;;;;18.33;62.00;95697.53;5045155;28;20189;-70
2023/07/02 03:50:02;;;;;;;3.87;3.57;;;;;;;18.33;62.04;95712.63;5045348;28;20177;-70
2023/07/02 03:52:27;;;;;;;5.90;3.50;;;;;;;18.38;62.03;95705.13;5045254;28;20198;-69
2023/07/02 03:54:52;;;;;;;7.13;4.10;;;;;;;18.26;62.34;95709.66;5045320;28;20235;-68
2023/07/02 03:57:18;;;;;;;14.20;4.33;;;;;;;18.18;62.97;95717.44;5045041;28;20178;-69
2023/07/02 03:59:43;;;;;;;4.20;3.80;;;;;;;18.17;62.86;95715.75;5045139;28;20183;-69
2023/07/02 04:02:09;;;;;;;5.10;3.40;;;;;;;18.19;63.04;95727.09;5045163;28;20545;-70
2023/07/02 04:04:34;;;;;;;12.13;4.13;;;;;;;18.23;62.85;95719.69;5044702;28;20203;-69
2023/07/02 04:06:59;;;;;;;14.37;4.50;;;;;;;18.20;62.93;95721.63;5044991;28;20613;-70
2023/07/02 04:09:25;;;;;;;9.90;4.00;;;;;;;18.18;62.89;95723.56;5045827;28;20236;-70
2023/07/02 04:11:50;;;;;;;123.67;16.03;;;;;;;18.19;62.99;95732.41;5045179;28;20202;-69
2023/07/02 04:14:15;;;;;;;8.57;4.20;;;;;;;18.18;62.90;95736.03;5044689;28;20209;-69
2023/07/02 04:16:44;;;;;;;14.33;4.20;;;;;;;18.22;62.85;95740.09;5045314;28;20186;-71
2023/07/02 04:19:10;;;;;;;11.27;4.57;;;;;;;18.28;63.29;95747.53;5049043;28;20209;-70
2023/07/02 04:21:35;;;;;;;26.23;6.10;;;;;;;18.09;63.96;95750.06;5049189;28;20534;-70
2023/07/02 04:24:00;;;;;;;10.20;4.67;;;;;;;18.01;65.10;95760.50;5048813;28;20208;-70
2023/07/02 04:26:26;;;;;;;103.80;13.80;;;;;;;18.06;65.90;95760.97;5048869;28;20186;-70
2023/07/02 04:28:53;;;;;;;6.03;4.40;;;;;;;17.94;66.61;95770.78;5047749;28;20715;-71
2023/07/02 04:31:19;;;;;;;5.50;4.10;;;;;;;17.98;67.46;95772.22;5048798;28;20183;-68
2023/07/02 04:33:44;;;;;;;6.73;4.00;;;;;;;17.96;67.74;95775.00;5048727;28;20994;-70
2023/07/02 04:36:10;;;;;;;6.70;4.50;;;;;;;17.98;67.71;95772.22;5048712;28;20390;-69
2023/07/02 04:38:35;;;;;;;6.87;3.63;;;;;;;17.92;68.50;95772.72;5049084;28;20221;-68
2023/07/02 04:41:05;;;;;;;11.97;4.60;;;;;;;17.88;68.68;95782.78;5048935;28;20288;-70
2023/07/02 04:43:31;;;;;;;26.73;7.20;;;;;;;17.90;69.33;95786.13;5048871;28;20210;-70
2023/07/02 04:45:57;;;;;;;25.50;7.97;;;;;;;17.88;69.00;95781.91;5048855;28;20424;-71
2023/07/02 04:48:22;;;;;;;18.80;5.87;;;;;;;17.85;69.47;95790.97;5048872;28;20432;-67
2023/07/02 04:50:48;;;;;;;42.67;8.97;;;;;;;17.83;69.82;95784.94;5048634;28;20182;-69
2023/07/02 04:53:13;;;;;;;7.70;3.80;;;;;;;17.90;69.70;95787.94;5048615;28;20198;-68
2023/07/02 04:55:38;;;;;;;7.70;4.67;;;;;;;17.90;69.70;95785.28;5048282;28;20281;-70
2023/07/02 04:58:04;;;;;;;10.03;4.90;;;;;;;17.89;69.39;95795.06;5048069;28;20186;-70
2023/07/02 05:00:29;;;;;;;12.83;5.37;;;;;;;17.83;67.83;95786.75;5048599;28;20201;-70
2023/07/02 05:02:55;;;;;;;18.50;5.77;;;;;;;17.80;69.68;95787.00;5048421;28;20205;-70
2023/07/02 05:05:20;;;;;;;27.90;6.60;;;;;;;17.77;69.68;95798.72;5048017;28;20643;-71
2023/07/02 05:07:45;;;;;;;16.47;5.93;;;;;;;17.78;68.29;95784.47;5048579;28;20333;-69
2023/07/02 05:10:11;;;;;;;11.63;6.30;;;;;;;17.83;66.79;95787.59;5048759;28;20182;-70
2023/07/02 05:12:36;;;;;;;11.10;4.80;;;;;;;17.75;67.82;95790.88;5048364;28;20182;-70
2023/07/02 05:15:02;;;;;;;17.80;5.37;;;;;;;17.75;67.66;95798.81;5048105;28;20719;-71
2023/07/02 05:17:27;;;;;;;19.07;5.30;;;;;;;17.76;67.97;95804.97;5048640;28;20264;-70
2023/07/02 05:19:53;;;;;;;6.30;4.40;;;;;;;17.79;66.31;95804.75;5048709;28;20162;-71
2023/07/02 05:22:19;;;;;;;4.33;3.70;;;;;;;17.67;67.15;95811.88;5048146;28;20339;-70
2023/07/02 05:24:46;;;;;;;4.10;3.70;;;;;;;17.77;67.06;95817.28;5047378;28;20202;-68
2023/07/02 05:27:11;;;;;;;4.77;4.20;;;;;;;17.77;67.93;95817.28;5048430;28;20787;-69
2023/07/02 05:29:37;;;;;;;9.83;4.10;;;;;;;17.74;67.26;95814.88;5047856;28;20443;-70
2023/07/02 05:32:02;;;;;;;6.70;5.43;;;;;;;17.69;67.98;95814.41;5048389;28;20210;-69
2023/07/02 05:34:27;;;;;;;12.00;4.30;;;;;;;17.62;68.90;95803.44;5046994;28;20560;-71
2023/07/02 05:36:53;;;;;;;9.63;3.77;;;;;;;17.68;68.31;95812.72;5048207;28;20265;-69
2023/07/02 05:39:18;;;;;;;17.77;4.30;;;;;;;17.75;68.65;95817.41;5048137;28;20213;-69
2023/07/02 05:41:44;;;;;;;37.87;7.40;;;;;;;17.77;67.89;95811.97;5048394;28;20183;-69
2023/07/02 05:44:09;;;;;;;32.63;5.40;;;;;;;17.70;68.12;95822.25;5048163;28;20191;-73
2023/07/02 05:46:34;;;;;;;7.30;5.00;;;;;;;17.64;67.90;95814.78;5047234;28;20823;-73
2023/07/02 05:49:00;;;;;;;11.60;4.43;;;;;;;17.68;68.06;95823.34;5047703;28;21060;-74
2023/07/02 05:51:25;;;;;;;9.07;3.90;;;;;;;17.69;68.78;95817.91;5047471;28;20209;-70
2023/07/02 05:53:51;;;;;;;5.27;3.37;;;;;;;17.80;67.51;95826.81;5047092;28;20209;-71
2023/07/02 05:56:18;;;;;;;4.27;3.83;;;;;;;17.78;67.33;95819.78;5047968;28;20264;-71
2023/07/02 05:58:43;;;;;;;8.10;3.63;;;;;;;17.77;67.29;95827.91;5047977;28;20452;-72
2023/07/02 06:01:09;;;;;;;4.90;3.27;;;;;;;17.90;66.84;95833.91;5047859;28;20421;-70
2023/07/02 06:03:34;;;;;;;4.23;3.17;;;;;;;17.92;67.65;95834.63;5047172;28;20191;-70
2023/07/02 06:05:59;;;;;;;9.40;3.80;;;;;;;18.02;67.05;95837.34;5047108;28;20178;-71
2023/07/02 06:08:25;;;;;;;9.53;3.80;;;;;;;18.12;67.11;95826.84;5047225;28;20687;-73
2023/07/02 06:10:50;;;;;;;7.00;2.97;;;;;;;18.37;67.50;95837.06;5046285;28;20167;-72
2023/07/02 06:13:17;;;;;;;7.50;2.67;;;;;;;18.43;64.79;95834.91;5067637;28;20170;-72
2023/07/02 06:15:43;;;;;;;4.70;3.27;;;;;;;18.52;64.78;95836.75;5043216;28;20197;-72
2023/07/02 06:18:08;;;;;;;12.50;4.80;;;;;;;18.52;65.09;95845.59;5046817;28;20856;-71
2023/07/02 06:20:33;;;;;;;14.30;3.00;;;;;;;18.60;64.67;95845.75;5046143;28;20414;-68
2023/07/02 06:22:59;;;;;;;13.77;3.17;;;;;;;18.66;64.81;95840.91;5047220;28;20191;-72
2023/07/02 06:25:24;;;;;;;53.57;6.07;;;;;;;18.57;64.53;95863.81;5047249;28;20187;-70
2023/07/02 06:27:50;;;;;;;19.23;3.77;;;;;;;18.58;65.02;95845.06;5047335;28;20175;-72
2023/07/02 06:30:15;;;;;;;12.00;3.33;;;;;;;18.69;65.39;95853.94;5047101;28;20171;-72
2023/07/02 06:32:41;;;;;;;8.40;2.70;;;;;;;19.12;63.54;95853.78;5043011;28;20171;-71
2023/07/02 06:35:06;;;;;;;16.47;3.60;;;;;;;19.38;63.35;95855.97;5041003;28;20572;-72
2023/07/02 06:37:32;;;;;;;8.07;2.87;;;;;;;19.50;62.65;95852.22;5040041;28;20421;-72
2023/07/02 06:39:58;;;;;;;4.23;2.17;;;;;;;19.90;61.72;95850.53;5047422;28;20304;-69
2023/07/02 06:42:25;;;;;;;6.43;2.67;;;;;;;19.98;61.02;95856.00;5047219;28;20559;-71
2023/07/02 06:44:50;;;;;;;3.67;2.27;;;;;;;19.81;60.63;95854.84;5043563;28;20199;-71
2023/07/02 06:47:16;;;;;;;6.40;3.60;;;;;;;19.88;60.04;95856.81;5045392;28;20428;-71
2023/07/02 06:49:41;;;;;;;4.33;2.70;;;;;;;20.21;58.74;95852.09;5046324;28;20258;-71
2023/07/02 06:52:06;;;;;;;3.77;3.13;;;;;;;20.45;57.41;95854.31;5046194;28;20171;-70
2023/07/02 06:54:32;;;;;;;9.10;4.17;;;;;;;20.41;56.06;95855.59;5040921;28;20205;-72
2023/07/02 06:56:57;;;;;;;7.07;4.80;;;;;;;20.18;56.44;95847.03;5045853;28;20639;-72
2023/07/02 06:59:23;;;;;;;6.33;4.63;;;;;;;20.05;56.92;95847.31;5046385;28;20179;-71
2023/07/02 07:01:49;;;;;;;4.73;3.60;;;;;;;20.03;56.05;95851.97;5046112;28;20201;-72
2023/07/02 07:04:15;;;;;;;19.83;5.20;;;;;;;19.88;56.80;95864.81;5046058;28;20201;-71
2023/07/02 07:06:42;;;;;;;25.17;5.10;;;;;;;20.00;56.61;95860.19;5046655;28;20829;-73
2023/07/02 07:09:07;;;;;;;6.10;4.57;;;;;;;19.97;56.83;95865.81;5046333;28;20174;-72
2023/07/02 07:11:33;;;;;;;20.40;5.00;;;;;;;19.99;56.44;95869.19;5057381;28;21151;-69
2023/07/02 07:13:58;;;;;;;7.43;4.47;;;;;;;19.82;56.41;95870.72;5055250;28;20258;-72
2023/07/02 07:16:23;;;;;;;8.20;4.33;;;;;;;19.96;56.13;95863.28;5051752;28;20194;-71
2023/07/02 07:18:49;;;;;;;6.70;4.23;;;;;;;19.98;54.70;95869.31;5045934;28;20186;-72
2023/07/02 07:21:14;;;;;;;14.20;4.77;;;;;;;20.20;54.34;95871.72;5046132;28;20611;-72
2023/07/02 07:23:40;;;;;;;6.60;5.00;;;;;;;20.22;53.96;95864.44;5046006;28;20198;-72
2023/07/02 07:26:06;;;;;;;9.93;5.27;;;;;;;20.32;53.52;95875.09;5050954;28;20175;-72
2023/07/02 07:28:32;;;;;;;7.23;4.57;;;;;;;20.36;53.81;95878.31;5047455;28;20264;-71
2023/07/02 07:30:57;;;;;;;12.70;5.67;;;;;;;20.25;54.53;95880.13;5048848;28;20223;-71
2023/07/02 07:33:22;;;;;;;15.97;5.80;;;;;;;20.18;54.60;95884.34;5046054;28;20178;-69
2023/07/02 07:35:48;;;;;;;19.50;6.70;;;;;;;20.15;54.54;95892.63;5045657;28;20314;-71
2023/07/02 07:38:14;;;;;;;9.77;6.20;;;;;;;20.12;54.11;95884.06;5045673;28;20170;-70
2023/07/02 07:40:40;;;;;;;9.07;5.30;;;;;;;20.11;54.48;95885.03;5045875;28;20292;-71
2023/07/02 07:43:05;;;;;;;13.20;4.93;;;;;;;20.11;54.58;95893.03;5045168;28;20453;-72
2023/07/02 07:45:31;;;;;;;9.53;5.00;;;;;;;20.17;54.00;95881.81;5045032;28;20235;-73
2023/07/02 07:47:56;;;;;;;14.50;5.80;;;;;;;20.25;54.42;95884.63;5040399;28;20645;-71
2023/07/02 07:50:21;;;;;;;16.30;6.53;;;;;;;20.47;53.77;95892.34;5044521;28;20182;-71
2023/07/02 07:52:47;;;;;;;11.07;5.43;;;;;;;20.31;53.64;95884.06;5044990;28;20171;-71
2023/07/02 07:55:13;;;;;;;13.00;5.50;;;;;;;20.65;53.26;95892.50;5045024;28;20347;-71
2023/07/02 07:57:38;;;;;;;9.73;5.53;;;;;;;20.64;53.18;95882.81;5045633;28;20421;-70
2023/07/02 08:00:09;;;;;;;7.50;5.40;;;;;;;20.78;52.83;95889.53;5045123;28;20183;-70
2023/07/02 08:02:35;;;;;;;7.40;5.13;;;;;;;20.58;53.31;95878.06;5043812;28;20217;-71
2023/07/02 08:05:01;;;;;;;13.03;6.00;;;;;;;20.74;53.15;95877.50;5041638;28;20441;-72
2023/07/02 08:07:26;;;;;;;12.17;6.00;;;;;;;20.86;52.82;95889.69;5045211;28;20174;-70
2023/07/02 08:09:51;;;;;;;22.53;6.03;;;;;;;20.74;53.13;95882.81;5045231;28;20279;-73
2023/07/02 08:12:17;;;;;;;6.70;5.67;;;;;;;21.05;52.23;95870.13;5045851;28;20186;-70
2023/07/02 08:14:42;;;;;;;11.93;5.67;;;;;;;20.78;52.74;95875.38;5045457;28;20191;-72
2023/07/02 08:17:07;;;;;;;11.27;6.50;;;;;;;20.92;52.49;95873.09;5045186;28;20611;-71
2023/07/02 08:19:33;;;;;;;14.63;6.90;;;;;;;20.94;52.83;95881.78;5044536;28;20174;-74
2023/07/02 08:21:58;;;;;;;13.37;6.87;;;;;;;21.11;51.95;95868.69;5044685;28;20199;-71
2023/07/02 08:24:23;;;;;;;9.50;6.13;;;;;;;21.22;51.56;95879.19;5045734;28;20197;-71
2023/07/02 08:26:49;;;;;;;7.47;6.30;;;;;;;21.35;51.03;95871.69;5045986;28;20174;-71
2023/07/02 08:29:15;;;;;;;13.67;7.20;;;;;;;21.31;51.13;95878.31;5046494;28;20167;-74
2023/07/02 08:31:41;;;;;;;12.90;7.17;;;;;;;21.24;51.14;95879.88;5045815;28;20179;-72
2023/07/02 08:34:06;;;;;;;9.50;6.63;;;;;;;21.18;50.83;95885.78;5046106;28;20273;-73
2023/07/02 08:36:32;;;;;;;18.00;7.60;;;;;;;21.19;50.49;95879.50;5046261;28;20183;-72
2023/07/02 08:38:57;;;;;;;13.73;6.47;;;;;;;21.10;50.49;95880.34;5046103;28;20174;-72
2023/07/02 08:41:23;;;;;;;20.53;7.97;;;;;;;21.16;50.63;95874.41;5046916;28;20586;-73
2023/07/02 08:43:49;;;;;;;16.20;7.40;;;;;;;21.26;50.83;95882.38;5045624;28;20238;-72
2023/07/02 08:46:16;;;;;;;17.00;8.03;;;;;;;21.24;50.03;95877.22;5045968;28;20438;-72
2023/07/02 08:48:42;;;;;;;9.63;8.20;;;;;;;21.38;49.83;95875.03;5046094;28;20424;-73
2023/07/02 08:51:07;;;;;;;9.80;7.73;;;;;;;21.39;49.97;95871.41;5045625;28;20402;-73
2023/07/02 08:53:33;;;;;;;9.47;7.43;;;;;;;21.89;48.70;95866.50;5045388;28;20171;-73
2023/07/02 08:56:03;;;;;;;11.37;7.93;;;;;;;22.36;47.55;95868.19;5045566;28;20171;-73
2023/07/02 08:58:28;;;;;;;9.97;7.70;;;;;;;22.88;46.03;95857.56;5045692;28;20171;-72
2023/07/02 09:01:10;;;;;;;13.17;8.33;;;;;;;23.16;45.12;95863.63;5045769;28;20480;-74
2023/07/02 09:03:39;;;;;;;12.83;7.63;;;;;;;23.48;44.37;95851.44;5046040;28;20194;-70
2023/07/02 09:06:06;;;;;;;15.50;8.50;;;;;;;23.48;44.01;95848.75;5049178;28;20409;-74
2023/07/02 09:08:34;;;;;;;31.23;9.63;;;;;;;23.72;43.87;95856.03;5037331;28;20469;-69
2023/07/02 09:11:10;;;;;;;17.07;8.40;;;;;;;23.19;44.39;95855.28;5047770;28;20421;-69
2023/07/02 09:13:46;;;;;;;18.37;9.20;;;;;;;23.18;44.60;95848.25;5047272;28;20781;-70
2023/07/02 09:16:34;;;;;;;14.60;8.50;;;;;;;22.99;44.15;95857.34;5029576;28;20410;-71
2023/07/02 09:19:04;;;;;;;19.77;9.17;;;;;;;22.71;45.30;95858.47;5028489;28;20515;-69
2023/07/02 09:21:46;;;;;;;10.67;8.17;;;;;;;22.37;45.42;95853.81;5029051;28;20898;-72
2023/07/02 09:24:13;;;;;;;12.43;8.57;;;;;;;22.81;44.50;95853.84;5028482;28;20919;-68
2023/07/02 09:26:43;;;;;;;11.87;8.43;;;;;;;22.69;44.60;95847.06;5038570;28;20945;-73
2023/07/02 09:29:09;;;;;;;9.30;7.90;;;;;;;23.29;43.64;95857.84;5047796;28;20452;-76
2023/07/02 09:31:47;;;;;;;14.47;8.80;;;;;;;23.66;42.73;95854.00;5045224;28;20409;-70
2023/07/02 09:34:12;;;;;;;15.43;9.53;;;;;;;23.82;41.80;95847.91;5047684;28;20190;-67
2023/07/02 09:36:40;;;;;;;14.77;9.10;;;;;;;23.94;41.36;95843.06;5048620;28;20412;-70
2023/07/02 09:39:12;;;;;;;16.33;8.90;;;;;;;24.17;40.32;95837.94;5032760;28;20249;-70
2023/07/02 09:41:40;;;;;;;13.17;9.50;;;;;;;24.02;40.19;95840.41;5027892;28;20410;-73
2023/07/02 09:44:07;;;;;;;15.40;9.10;;;;;;;24.23;40.02;95834.56;5038106;28;20437;-76
2023/07/02 09:46:36;;;;;;;12.20;9.40;;;;;;;24.17;39.76;95830.72;5047761;28;20406;-73
2023/07/02 09:49:02;;;;;;;10.60;8.87;;;;;;;24.43;39.27;95843.16;5047776;28;20414;-72
2023/07/02 09:51:28;;;;;;;13.30;8.80;;;;;;;24.33;39.23;95829.03;5047501;28;20547;-73
2023/07/02 09:53:54;;;;;;;10.33;8.33;;;;;;;24.21;39.85;95833.91;5046995;28;20483;-74
2023/07/02 09:56:21;;;;;;;11.67;8.10;;;;;;;23.79;40.93;95848.22;5047663;28;20310;-74
2023/07/02 09:58:46;;;;;;;11.00;7.17;;;;;;;23.49;41.88;95852.25;5048172;28;20162;-73
2023/07/02 10:01:12;;;;;;;16.20;8.37;;;;;;;23.17;42.82;95853.75;5047273;28;20413;-72
2023/07/02 10:03:37;;;;;;;20.23;8.30;;;;;;;23.10;43.30;95855.41;5046672;28;20206;-70
2023/07/02 10:06:04;;;;;;;20.10;9.00;;;;;;;23.05;42.78;95855.88;5047297;28;20496;-70
2023/07/02 10:08:30;;;;;;;9.03;7.90;;;;;;;23.21;42.06;95852.47;5047378;28;20179;-72
2023/07/02 10:11:07;;;;;;;13.60;8.70;;;;;;;23.61;41.66;95854.47;5047435;28;20405;-70
2023/07/02 10:13:32;;;;;;;12.10;9.20;;;;;;;23.80;41.10;95850.72;5046804;28;20177;-74
2023/07/02 10:16:04;;;;;;;13.20;8.47;;;;;;;23.93;40.59;95844.06;5045744;28;20437;-73
2023/07/02 10:18:30;;;;;;;9.73;8.73;;;;;;;23.93;40.64;95849.41;5046147;28;20899;-69
2023/07/02 10:20:55;;;;;;;15.07;10.33;;;;;;;24.07;40.38;95836.25;5046880;28;20405;-72
2023/07/02 10:23:35;;;;;;;18.53;10.17;;;;;;;23.96;39.64;95836.53;5045943;28;20203;-71
2023/07/02 10:26:30;;;;;;;12.90;9.40;;;;;;;24.17;39.73;95833.41;5033174;28;20167;-72
2023/07/02 10:28:57;;;;;;;17.63;10.10;;;;;;;24.36;39.34;95832.25;5033694;28;20529;-68
2023/07/02 10:31:23;;;;;;;18.23;10.40;;;;;;;24.21;37.21;95825.84;5047151;28;20476;-74
2023/07/02 10:33:48;;;;;;;14.30;10.73;;;;;;;24.29;37.61;95832.06;5046474;28;20946;-70
2023/07/02 10:36:21;;;;;;;13.17;10.73;;;;;;;24.47;37.52;95825.72;5047103;28;20171;-69
2023/07/02 10:38:47;;;;;;;21.37;11.20;;;;;;;24.71;37.69;95825.75;5038622;28;20589;-74
2023/07/02 10:41:24;;;;;;;14.30;11.20;;;;;;;24.60;36.76;95825.25;5032111;28;20910;-73
2023/07/02 10:43:49;;;;;;;23.53;13.13;;;;;;;24.57;34.99;95831.78;5034854;28;20557;-70
2023/07/02 10:46:19;;;;;;;13.63;11.60;;;;;;;24.44;36.43;95823.38;5045895;28;20417;-71
2023/07/02 10:48:55;;;;;;;13.77;11.30;;;;;;;24.43;37.79;95822.53;5042283;28;20179;-68
2023/07/02 10:51:21;;;;;;;15.90;11.77;;;;;;;24.64;38.40;95827.44;5026391;28;20446;-68
2023/07/02 10:53:57;;;;;;;16.50;11.57;;;;;;;24.59;37.80;95827.09;5026242;28;20447;-71
2023/07/02 10:56:22;;;;;;;30.43;13.33;;;;;;;24.61;38.14;95829.59;5045954;28;20432;-71
2023/07/02 10:58:51;;;;;;;16.40;12.33;;;;;;;24.59;38.02;95827.09;5046343;28;20419;-71
2023/07/02 11:01:25;;;;;;;28.73;13.50;;;;;;;24.68;36.92;95825.22;5046451;28;20178;-73
2023/07/02 11:04:04;;;;;;;29.07;13.80;;;;;;;24.85;36.38;95820.66;5043930;28;20453;-72
2023/07/02 11:06:32;;;;;;;19.30;12.90;;;;;;;24.96;36.23;95823.00;5044106;28;20452;-69
2023/07/02 11:08:58;;;;;;;19.83;12.30;;;;;;;25.00;36.41;95812.78;5043991;28;20803;-68
2023/07/02 11:11:24;;;;;;;20.17;14.37;;;;;;;24.87;36.40;95811.44;5044250;28;21233;-71
2023/07/02 11:13:51;;;;;;;20.57;14.03;;;;;;;24.89;35.75;95808.59;5044865;28;20433;-70
2023/07/02 11:16:35;;;;;;;21.80;13.30;;;;;;;24.52;35.88;95815.38;5045916;28;20960;-71
2023/07/02 11:19:10;;;;;;;20.10;13.10;;;;;;;24.71;34.93;95820.38;5045799;28;20420;-71
2023/07/02 11:21:36;;;;;;;17.47;11.57;;;;;;;24.87;34.18;95807.94;5049141;28;20426;-71
2023/07/02 11:24:08;;;;;;;18.83;13.03;;;;;;;24.95;33.56;95813.28;5043740;28;20514;-72
2023/07/02 11:26:36;;;;;;;18.17;12.50;;;;;;;24.77;31.97;95807.28;5041486;28;20417;-71
2023/07/02 11:29:02;;;;;;;16.33;12.93;;;;;;;24.79;32.21;95810.63;5042761;28;20417;-70